createdAt,value
2018-05-12T00:00:18.145Z,55.34
2018-05-12T00:02:47.265Z,55.00
2018-05-12T00:05:17.722Z,54.30
2018-05-12T00:07:46.957Z,54.49
2018-05-12T00:10:16.378Z,56.20
2018-05-12T00:12:46.716Z,54.88
2018-05-12T00:15:15.839Z,54.32
2018-05-12T00:17:45.405Z,54.28
2018-05-12T00:20:13.927Z,55.68
2018-05-12T00:22:42.407Z,56.18
2018-05-12T00:25:10.868Z,56.16
2018-05-12T00:27:39.295Z,55.82
2018-05-12T00:30:07.775Z,56.40
2018-05-12T00:32:36.190Z,55.93
2018-05-12T00:35:04.618Z,56.56
2018-05-12T00:37:33.055Z,55.73
2018-05-12T00:40:01.623Z,55.34
2018-05-12T00:42:30.172Z,56.50
2018-05-12T00:45:00.513Z,56.01
2018-05-12T00:47:28.980Z,56.33
2018-05-12T00:49:57.391Z,55.56
2018-05-12T00:52:25.819Z,56.22
2018-05-12T00:54:54.375Z,55.93
2018-05-12T00:57:22.776Z,56.16
2018-05-12T00:59:51.297Z,56.88
2018-05-12T01:02:19.729Z,56.37
2018-05-12T01:04:48.204Z,55.58
2018-05-12T01:07:16.624Z,57.90
2018-05-12T01:09:45.008Z,55.66
2018-05-12T01:12:17.093Z,56.75
2018-05-12T01:14:46.644Z,56.85
2018-05-12T01:17:15.183Z,58.32
2018-05-12T01:19:43.625Z,57.21
2018-05-12T01:22:12.067Z,57.94
2018-05-12T01:24:40.656Z,57.38
2018-05-12T01:27:09.118Z,57.08
2018-05-12T01:29:37.490Z,57.16
2018-05-12T01:32:10.686Z,57.91
2018-05-12T01:34:39.107Z,58.84
2018-05-12T01:37:07.595Z,58.40
2018-05-12T01:39:36.090Z,58.67
2018-05-12T01:42:04.633Z,58.29
2018-05-12T01:44:33.044Z,58.23
2018-05-12T01:47:01.516Z,58.51
2018-05-12T01:49:29.911Z,58.53
2018-05-12T01:51:58.310Z,57.89
2018-05-12T01:54:26.780Z,58.55
2018-05-12T01:56:56.136Z,58.29
2018-05-12T01:59:24.566Z,58.19
2018-05-12T02:01:52.950Z,58.93
2018-05-12T02:04:21.503Z,58.58
2018-05-12T02:06:49.913Z,60.40
2018-05-12T02:09:18.350Z,59.92
2018-05-12T02:11:46.763Z,59.35
2018-05-12T02:14:15.268Z,59.75
2018-05-12T02:16:43.667Z,60.71
2018-05-12T02:19:12.192Z,59.97
2018-05-12T02:21:40.601Z,60.59
2018-05-12T02:24:10.032Z,60.64
2018-05-12T02:26:38.540Z,59.45
2018-05-12T02:29:06.923Z,60.89
2018-05-12T02:31:35.516Z,60.43
2018-05-12T02:34:03.943Z,60.13
2018-05-12T02:36:32.326Z,61.29
2018-05-12T02:39:00.742Z,60.89
2018-05-12T02:41:29.135Z,61.36
2018-05-12T02:43:57.676Z,60.56
2018-05-12T02:46:26.072Z,61.66
2018-05-12T02:48:54.524Z,59.93
2018-05-12T02:51:22.939Z,60.92
2018-05-12T02:53:51.377Z,60.90
2018-05-12T02:56:19.775Z,60.26
2018-05-12T02:58:48.265Z,60.16
2018-05-12T03:01:17.696Z,60.83
2018-05-12T03:03:46.177Z,61.24
2018-05-12T03:06:14.621Z,60.97
2018-05-12T03:08:43.026Z,61.04
2018-05-12T03:11:11.474Z,60.67
2018-05-12T03:13:39.858Z,61.51
2018-05-12T03:16:08.286Z,61.11
2018-05-12T03:18:36.717Z,60.58
2018-05-12T03:21:05.128Z,61.13
2018-05-12T03:23:33.515Z,59.86
2018-05-12T03:26:01.915Z,60.52
2018-05-12T03:28:30.352Z,61.16
2018-05-12T03:30:58.850Z,61.28
2018-05-12T03:33:27.327Z,61.02
2018-05-12T03:35:55.840Z,60.32
2018-05-12T03:38:24.232Z,60.39
2018-05-12T03:40:52.628Z,61.47
2018-05-12T03:43:21.007Z,61.81
2018-05-12T03:45:49.554Z,61.55
2018-05-12T03:48:18.078Z,61.20
2018-05-12T03:50:46.567Z,61.44
2018-05-12T03:53:15.051Z,62.37
2018-05-12T03:55:43.467Z,61.95
2018-05-12T03:58:11.888Z,62.02
2018-05-12T04:00:40.286Z,61.80
2018-05-12T04:03:08.736Z,62.86
2018-05-12T04:05:48.798Z,61.94
2018-05-12T04:08:29.847Z,62.34
2018-05-12T04:11:10.145Z,61.25
2018-05-12T04:13:38.655Z,61.58
2018-05-12T04:16:07.101Z,61.80
2018-05-12T04:18:35.660Z,61.25
2018-05-12T04:21:04.112Z,61.34
2018-05-12T04:23:32.559Z,61.59
2018-05-12T04:26:01.080Z,61.21
2018-05-12T04:28:29.465Z,61.30
2018-05-12T04:30:57.988Z,62.39
2018-05-12T04:33:26.491Z,60.48
2018-05-12T04:35:55.096Z,59.91
2018-05-12T04:38:23.630Z,59.90
2018-05-12T04:40:52.059Z,59.83
2018-05-12T04:43:21.520Z,59.94
2018-05-12T04:45:49.909Z,59.22
2018-05-12T04:48:18.302Z,59.17
2018-05-12T04:50:46.725Z,59.63
2018-05-12T04:53:15.121Z,60.08
2018-05-12T04:55:43.625Z,59.41
2018-05-12T04:58:12.079Z,59.18
2018-05-12T05:00:41.454Z,59.32
2018-05-12T05:03:09.919Z,60.39
2018-05-12T05:05:38.384Z,59.12
2018-05-12T05:08:07.041Z,58.55
2018-05-12T05:10:35.388Z,57.56
2018-05-12T05:13:03.784Z,57.92
2018-05-12T05:15:32.243Z,58.99
2018-05-12T05:18:00.791Z,57.85
2018-05-12T05:20:29.413Z,58.97
2018-05-12T05:22:58.106Z,58.05
2018-05-12T05:25:26.759Z,57.81
2018-05-12T05:27:55.457Z,58.71
2018-05-12T05:30:23.878Z,56.33
2018-05-12T05:32:52.425Z,52.10
2018-05-12T05:35:20.891Z,48.80
2018-05-12T05:37:49.479Z,46.13
2018-05-12T05:40:18.875Z,46.51
2018-05-12T05:42:47.436Z,43.58
2018-05-12T05:45:16.055Z,42.30
2018-05-12T05:47:45.449Z,41.72
2018-05-12T05:50:14.016Z,39.47
2018-05-12T05:52:42.510Z,39.87
2018-05-12T05:55:11.123Z,41.03
2018-05-12T05:57:39.651Z,41.50
2018-05-12T06:00:08.272Z,40.47
2018-05-12T06:02:36.849Z,39.01
2018-05-12T06:05:05.281Z,37.68
2018-05-12T06:07:33.690Z,35.07
2018-05-12T06:10:04.072Z,35.10
2018-05-12T06:12:32.785Z,33.51
2018-05-12T06:15:01.312Z,34.11
2018-05-12T06:17:29.739Z,34.01
2018-05-12T06:19:58.270Z,30.94
2018-05-12T06:22:26.693Z,31.05
2018-05-12T06:24:55.229Z,32.31
2018-05-12T06:27:24.926Z,29.12
2018-05-12T06:29:53.440Z,29.28
2018-05-12T06:32:24.473Z,29.26
2018-05-12T06:34:53.039Z,30.04
2018-05-12T06:37:21.655Z,30.30
2018-05-12T06:39:51.257Z,29.76
2018-05-12T06:42:21.730Z,28.59
2018-05-12T06:44:50.555Z,27.61
2018-05-12T06:47:19.219Z,26.95
2018-05-12T06:49:48.197Z,24.46
2018-05-12T06:52:16.852Z,23.93
2018-05-12T06:54:45.721Z,24.01
2018-05-12T06:57:16.398Z,23.48
2018-05-12T06:59:45.028Z,23.80
2018-05-12T07:02:14.576Z,23.35
2018-05-12T07:04:43.679Z,22.88
2018-05-12T07:07:12.158Z,23.54
2018-05-12T07:09:40.823Z,22.68
2018-05-12T07:12:09.818Z,22.77
2018-05-12T07:14:40.398Z,22.63
2018-05-12T07:17:12.720Z,24.73
2018-05-12T07:19:41.803Z,26.48
2018-05-12T07:22:10.717Z,28.29
2018-05-12T07:24:39.477Z,27.92
2018-05-12T07:27:09.340Z,25.12
2018-05-12T07:29:43.376Z,23.76
2018-05-12T07:32:13.481Z,25.80
2018-05-12T07:34:43.377Z,27.27
2018-05-12T07:37:12.848Z,24.67
2018-05-12T07:39:41.586Z,22.74
2018-05-12T07:42:09.996Z,20.79
2018-05-12T07:44:38.641Z,20.72
2018-05-12T07:47:07.430Z,23.52
2018-05-12T07:49:35.958Z,24.97
2018-05-12T07:52:08.457Z,26.57
2018-05-12T07:54:37.769Z,28.00
2018-05-12T07:57:07.247Z,27.39
2018-05-12T07:59:37.625Z,24.33
2018-05-12T08:02:06.536Z,24.20
2018-05-12T08:04:36.072Z,24.71
2018-05-12T08:07:04.564Z,24.08
2018-05-12T08:09:33.156Z,20.28
2018-05-12T08:12:01.953Z,17.58
2018-05-12T08:14:30.588Z,17.72
2018-05-12T08:17:01.318Z,15.72
2018-05-12T08:19:33.207Z,17.29
2018-05-12T08:22:04.562Z,18.75
2018-05-12T08:24:33.175Z,18.91
2018-05-12T08:27:01.793Z,18.53
2018-05-12T08:29:30.368Z,20.44
2018-05-12T08:31:58.778Z,21.12
2018-05-12T08:34:27.322Z,22.05
2018-05-12T08:36:57.229Z,22.53
2018-05-12T08:39:25.819Z,23.17
2018-05-12T08:41:55.141Z,24.13
2018-05-12T08:44:23.972Z,23.18
2018-05-12T08:46:52.485Z,22.65
2018-05-12T08:49:20.943Z,23.88
2018-05-12T08:51:49.571Z,24.19
2018-05-12T08:54:19.834Z,24.01
2018-05-12T08:56:53.363Z,25.10
2018-05-12T08:59:23.076Z,27.70
2018-05-12T09:01:52.073Z,29.08
2018-05-12T09:04:20.583Z,28.89
2018-05-12T09:06:49.254Z,28.62
2018-05-12T09:09:20.483Z,27.67
2018-05-12T09:11:49.004Z,25.39
2018-05-12T09:14:17.418Z,24.99
2018-05-12T09:16:50.263Z,25.83
2018-05-12T09:19:19.526Z,26.79
2018-05-12T09:21:48.380Z,25.29
2018-05-12T09:24:17.045Z,25.68
2018-05-12T09:26:47.966Z,27.17
2018-05-12T09:29:18.201Z,26.22
2018-05-12T09:31:47.060Z,25.67
2018-05-12T09:34:15.901Z,26.89
2018-05-12T09:36:44.377Z,27.12
2018-05-12T09:39:13.123Z,27.08
2018-05-12T09:41:42.258Z,27.39
2018-05-12T09:44:12.031Z,27.18
2018-05-12T09:46:41.807Z,27.42
2018-05-12T09:49:12.548Z,27.01
2018-05-12T09:51:42.398Z,27.03
2018-05-12T09:54:29.093Z,26.35
2018-05-12T10:03:27.783Z,25.82
2018-05-12T10:15:34.035Z,23.93
2018-05-12T10:18:03.463Z,23.73
2018-05-12T10:20:35.345Z,25.35
2018-05-12T10:23:08.269Z,25.92
2018-05-12T10:25:38.207Z,24.21
2018-05-12T10:28:07.341Z,22.28
2018-05-12T10:30:36.678Z,21.23
2018-05-12T10:33:05.926Z,18.98
2018-05-12T10:35:40.048Z,18.88
2018-05-12T10:38:11.420Z,18.83
2018-05-12T10:40:46.598Z,18.16
2018-05-12T10:43:21.792Z,17.66
2018-05-12T10:48:27.603Z,16.89
2018-05-12T10:51:02.738Z,17.00
2018-05-12T10:53:35.428Z,18.30
2018-05-12T10:56:08.698Z,18.31
2018-05-12T10:58:44.168Z,19.63
2018-05-12T11:01:14.519Z,18.20
2018-05-12T11:03:52.872Z,17.90
2018-05-12T11:06:31.438Z,17.57
2018-05-12T11:09:07.205Z,18.05
2018-05-12T11:14:33.009Z,17.43
2018-05-12T11:17:06.143Z,18.63
2018-05-12T11:19:42.008Z,19.36
2018-05-12T11:22:27.828Z,19.23
2018-05-12T11:27:50.595Z,21.03
2018-05-12T11:30:40.353Z,22.26
2018-05-12T11:33:12.657Z,23.15
2018-05-12T11:35:51.086Z,23.84
2018-05-12T11:38:29.272Z,24.84
2018-05-12T11:40:59.726Z,25.13
2018-05-12T11:43:31.221Z,24.79
2018-05-12T11:48:50.174Z,25.15
2018-05-12T11:51:28.528Z,26.42
2018-05-12T11:54:05.275Z,25.42
2018-05-12T11:56:50.542Z,25.08
2018-05-12T11:59:29.529Z,24.34
2018-05-12T12:02:03.478Z,24.77
2018-05-12T12:04:36.994Z,24.53
2018-05-12T12:07:12.465Z,24.48
2018-05-12T12:09:46.065Z,24.99
2018-05-12T12:12:16.878Z,24.48
2018-05-12T12:14:53.687Z,25.16
2018-05-12T12:17:32.818Z,24.96
2018-05-12T12:26:05.520Z,24.45
2018-05-12T12:32:33.807Z,24.08
2018-05-12T13:00:29.249Z,26.23
2018-05-12T13:03:04.373Z,26.24
2018-05-12T13:08:24.674Z,25.81
2018-05-12T13:10:59.972Z,27.03
2018-05-12T13:13:30.543Z,28.00
2018-05-12T13:16:02.402Z,26.96
2018-05-12T13:18:37.579Z,26.87
2018-05-12T13:21:26.823Z,27.34
2018-05-12T13:24:00.971Z,27.49
2018-05-12T13:26:29.418Z,26.02
2018-05-12T13:28:57.999Z,24.83
2018-05-12T13:31:26.588Z,25.57
2018-05-12T13:33:57.182Z,27.93
2018-05-12T13:36:26.657Z,27.67
2018-05-12T13:38:56.223Z,28.14
2018-05-12T13:41:31.547Z,28.08
2018-05-12T13:50:05.758Z,26.99
2018-05-12T13:52:46.615Z,26.90
2018-05-12T14:02:04.015Z,26.75
2018-05-12T14:45:32.852Z,29.92
2018-05-12T14:48:01.641Z,29.21
2018-05-12T14:50:30.544Z,29.65
2018-05-12T14:52:59.692Z,29.07
2018-05-12T14:55:28.253Z,28.30
2018-05-12T14:57:57.332Z,29.24
2018-05-12T15:00:26.080Z,27.42
2018-05-12T15:02:55.372Z,28.05
2018-05-12T15:05:25.210Z,28.33
2018-05-12T15:07:54.767Z,29.74
2018-05-12T15:10:23.600Z,29.17
2018-05-12T15:12:52.493Z,29.46
2018-05-12T15:15:22.527Z,26.57
2018-05-12T15:17:51.190Z,26.64
2018-05-12T15:20:21.349Z,26.38
2018-05-12T15:22:50.336Z,25.92
2018-05-12T15:25:20.002Z,25.99
2018-05-12T15:27:49.145Z,26.24
2018-05-12T15:30:21.326Z,26.30
2018-05-12T15:32:50.411Z,26.05
2018-05-12T15:35:20.248Z,26.78
2018-05-12T15:37:49.378Z,29.46
2018-05-12T15:40:18.475Z,28.77
2018-05-12T15:42:47.971Z,28.42
2018-05-12T15:45:16.743Z,28.85
2018-05-12T15:47:46.433Z,29.28
2018-05-12T15:50:15.318Z,28.93
2018-05-12T15:52:43.791Z,30.13
2018-05-12T15:55:12.356Z,29.51
2018-05-12T15:57:42.199Z,28.69
2018-05-12T16:00:10.758Z,28.78
2018-05-12T16:02:40.373Z,28.18
2018-05-12T16:05:08.840Z,28.19
2018-05-12T16:07:37.390Z,28.14
2018-05-12T16:10:06.033Z,28.98
2018-05-12T16:12:34.903Z,29.16
2018-05-12T16:15:03.482Z,28.14
2018-05-12T16:17:31.958Z,28.23
2018-05-12T16:20:00.647Z,28.34
2018-05-12T16:22:29.532Z,27.72
2018-05-12T16:24:57.976Z,27.49
2018-05-12T16:27:26.718Z,27.05
2018-05-12T16:29:55.278Z,26.29
2018-05-12T16:32:24.817Z,26.49
2018-05-12T16:34:54.239Z,25.81
2018-05-12T16:37:22.995Z,26.38
2018-05-12T16:39:51.533Z,26.04
2018-05-12T16:42:20.142Z,27.03
2018-05-12T16:44:48.843Z,26.63
2018-05-12T16:47:17.338Z,26.77
2018-05-12T16:49:45.984Z,26.33
2018-05-12T16:52:16.553Z,27.08
2018-05-12T16:54:45.544Z,26.98
2018-05-12T16:57:14.525Z,26.70
2018-05-12T16:59:43.542Z,26.34
2018-05-12T17:02:14.299Z,25.83
2018-05-12T17:04:43.514Z,26.10
2018-05-12T17:07:13.693Z,25.71
2018-05-12T17:09:42.156Z,25.58
2018-05-12T17:12:10.839Z,26.22
2018-05-12T17:14:39.628Z,26.60
2018-05-12T17:17:09.206Z,25.98
2018-05-12T17:19:38.231Z,25.95
2018-05-12T17:22:08.580Z,26.07
2018-05-12T17:24:37.273Z,26.24
2018-05-12T17:27:06.077Z,26.51
2018-05-12T17:29:34.693Z,26.53
2018-05-12T17:32:03.260Z,26.53
2018-05-12T17:34:31.790Z,27.98
2018-05-12T17:37:00.302Z,27.77
2018-05-12T17:39:29.091Z,29.12
2018-05-12T17:41:57.718Z,30.07
2018-05-12T17:44:29.180Z,28.92
2018-05-12T17:47:05.079Z,29.43
2018-05-12T17:49:35.702Z,30.43
2018-05-12T17:52:05.047Z,30.68
2018-05-12T17:54:33.864Z,30.52
2018-05-12T17:57:03.203Z,30.73
2018-05-12T17:59:31.759Z,30.64
2018-05-12T18:02:00.340Z,30.34
2018-05-12T18:04:29.196Z,30.84
2018-05-12T18:06:58.603Z,31.05
2018-05-12T18:09:28.724Z,31.51
2018-05-12T18:11:57.650Z,32.23
2018-05-12T18:14:26.643Z,33.57
2018-05-12T18:16:55.526Z,31.69
2018-05-12T18:19:24.484Z,33.05
2018-05-12T18:21:53.628Z,32.59
2018-05-12T18:24:22.210Z,32.56
2018-05-12T18:26:51.497Z,32.44
2018-05-12T18:29:21.591Z,34.09
2018-05-12T18:31:50.602Z,34.35
2018-05-12T18:34:19.204Z,33.96
2018-05-12T18:36:48.667Z,34.34
2018-05-12T18:39:20.100Z,34.00
2018-05-12T18:41:49.683Z,35.14
2018-05-12T18:44:19.300Z,34.99
2018-05-12T18:46:50.943Z,34.62
2018-05-12T18:49:21.034Z,35.82
2018-05-12T18:51:49.923Z,36.00
2018-05-12T18:54:18.562Z,36.25
2018-05-12T18:56:47.136Z,37.00
2018-05-12T18:59:16.040Z,38.16
2018-05-12T19:01:44.529Z,38.39
2018-05-12T19:04:13.622Z,38.77
2018-05-12T19:06:42.572Z,39.50
2018-05-12T19:09:13.130Z,39.70
2018-05-12T19:11:42.330Z,39.82
2018-05-12T19:14:11.052Z,40.29
2018-05-12T19:16:39.989Z,40.66
2018-05-12T19:19:08.635Z,41.10
2018-05-12T19:21:37.284Z,40.32
2018-05-12T19:24:08.389Z,41.35
2018-05-12T19:26:39.684Z,41.67
2018-05-12T19:29:09.276Z,41.92
2018-05-12T19:31:39.922Z,41.81
2018-05-12T19:34:08.699Z,42.18
2018-05-12T19:36:37.139Z,42.51
2018-05-12T19:39:05.608Z,42.99
2018-05-12T19:41:34.219Z,43.33
2018-05-12T19:44:03.074Z,43.12
2018-05-12T19:46:33.401Z,43.74
2018-05-12T19:49:01.844Z,44.47
2018-05-12T19:51:31.168Z,44.63
2018-05-12T19:54:00.672Z,44.79
2018-05-12T19:56:29.777Z,44.64
2018-05-12T19:59:00.039Z,44.81
2018-05-12T20:01:28.578Z,44.96
2018-05-12T20:03:57.118Z,45.18
2018-05-12T20:06:25.599Z,44.86
2018-05-12T20:08:54.241Z,45.18
2018-05-12T20:11:23.072Z,45.19
2018-05-12T20:13:51.586Z,45.74
2018-05-12T20:16:20.132Z,45.43
2018-05-12T20:18:48.651Z,46.35
2018-05-12T20:21:17.270Z,45.76
2018-05-12T20:23:45.698Z,46.25
2018-05-12T20:26:14.401Z,45.75
2018-05-12T20:28:43.850Z,46.42
2018-05-12T20:31:12.511Z,46.26
2018-05-12T20:33:41.140Z,45.97
2018-05-12T20:36:09.781Z,46.24
2018-05-12T20:38:38.353Z,46.14
2018-05-12T20:41:06.831Z,46.78
2018-05-12T20:43:35.302Z,46.68
2018-05-12T20:46:03.912Z,46.56
2018-05-12T20:48:32.458Z,47.31
2018-05-12T20:51:00.958Z,46.36
2018-05-12T20:53:29.387Z,47.02
2018-05-12T20:55:57.940Z,47.68
2018-05-12T20:58:26.423Z,47.35
2018-05-12T21:00:54.888Z,47.34
2018-05-12T21:03:23.307Z,47.05
2018-05-12T21:05:51.744Z,47.22
2018-05-12T21:08:20.204Z,46.77
2018-05-12T21:10:48.850Z,47.83
2018-05-12T21:13:18.870Z,47.57
2018-05-12T21:15:47.328Z,48.24
2018-05-12T21:18:15.902Z,48.07
2018-05-12T21:20:44.387Z,48.16
2018-05-12T21:23:12.936Z,47.70
2018-05-12T21:25:41.486Z,47.49
2018-05-12T21:28:09.899Z,47.22
2018-05-12T21:30:39.272Z,48.32
2018-05-12T21:33:07.703Z,49.10
2018-05-12T21:35:36.235Z,49.06
2018-05-12T21:38:05.025Z,48.17
2018-05-12T21:40:33.390Z,48.88
2018-05-12T21:43:01.975Z,48.59
2018-05-12T21:45:30.516Z,49.59
2018-05-12T21:47:59.019Z,50.44
2018-05-12T21:50:27.501Z,50.19
2018-05-12T21:52:56.011Z,49.75
2018-05-12T21:55:24.475Z,50.05
2018-05-12T21:57:53.037Z,50.11
2018-05-12T22:00:21.536Z,51.20
2018-05-12T22:02:50.888Z,49.94
2018-05-12T22:05:19.401Z,49.73
2018-05-12T22:07:47.964Z,50.85
2018-05-12T22:10:16.388Z,50.23
2018-05-12T22:12:44.951Z,51.47
2018-05-12T22:15:13.421Z,52.31
2018-05-12T22:17:41.927Z,51.62
2018-05-12T22:20:10.411Z,52.39
2018-05-12T22:22:38.953Z,52.26
2018-05-12T22:25:07.402Z,52.64
2018-05-12T22:27:35.842Z,53.66
2018-05-12T22:30:04.542Z,52.86
2018-05-12T22:32:32.990Z,53.50
2018-05-12T22:35:01.509Z,54.25
2018-05-12T22:37:30.074Z,53.94
2018-05-12T22:39:58.514Z,54.05
2018-05-12T22:42:26.941Z,54.03
2018-05-12T22:44:55.531Z,55.51
2018-05-12T22:47:24.153Z,54.79
2018-05-12T22:49:52.603Z,54.36
2018-05-12T22:52:21.093Z,54.67
2018-05-12T22:54:49.639Z,54.66
2018-05-12T22:57:18.249Z,55.39
2018-05-12T22:59:46.757Z,56.55
2018-05-12T23:02:15.214Z,55.85
2018-05-12T23:04:43.684Z,54.89
2018-05-12T23:07:12.193Z,55.55
2018-05-12T23:09:40.694Z,55.84
2018-05-12T23:12:09.235Z,55.59
2018-05-12T23:14:37.813Z,55.58
2018-05-12T23:17:06.432Z,56.02
2018-05-12T23:19:34.931Z,55.64
2018-05-12T23:22:03.678Z,55.38
2018-05-12T23:24:32.175Z,56.01
2018-05-12T23:27:00.762Z,55.04
2018-05-12T23:29:29.321Z,56.21
2018-05-12T23:32:01.525Z,55.23
2018-05-12T23:34:30.055Z,55.39
2018-05-12T23:36:58.558Z,56.37
2018-05-12T23:39:26.963Z,55.49
2018-05-12T23:41:55.644Z,55.14
2018-05-12T23:44:24.222Z,56.80
2018-05-12T23:46:52.910Z,57.21
2018-05-12T23:49:21.416Z,60.61
2018-05-12T23:51:49.883Z,59.87
2018-05-12T23:54:18.423Z,58.86
2018-05-12T23:56:46.857Z,56.16
2018-05-12T23:59:15.326Z,56.23
